PITTSFIELD MILLS DAM SUNCOOK RIVER PITTSFIELD, NH: From 06/04/2019 02:00 to 06/18/2019 19:00

Date PRECIPITATION INCREMENT [IN] WATER TEMPERATURE [F] AIR TEMPERATURE [F] POOL ELEVATION [FT] RESERVOIR RELEASE [CFS]
06/18/2019 13:00 -- -- -- -- 122.0
06/18/2019 12:00 0.00 68.0 69.0 474.84 121.8
06/18/2019 11:00 0.00 68.0 68.0 474.85 122.0
06/18/2019 10:00 0.00 68.0 66.0 474.85 124.0
06/18/2019 09:00 0.00 68.0 63.0 474.85 124.5
06/18/2019 08:00 0.00 68.0 58.0 474.85 126.0
06/18/2019 07:00 0.00 68.0 55.0 474.85 126.0
06/18/2019 06:00 0.00 67.8 55.0 474.86 127.0
06/18/2019 05:00 0.00 67.8 56.0 474.86 127.0
06/18/2019 04:00 0.00 67.8 56.0 474.86 128.5
06/18/2019 03:00 0.00 67.8 56.0 474.86 129.3
06/18/2019 02:00 0.00 67.6 56.0 474.86 130.5
06/18/2019 01:00 0.00 67.8 58.0 474.87 132.0
06/18/2019 00:00 0.00 67.6 59.0 474.87 132.8
06/17/2019 23:00 0.00 67.6 62.0 474.87 133.5
06/17/2019 22:00 0.00 67.5 66.0 474.87 135.0
06/17/2019 21:00 0.00 67.3 73.0 474.87 136.0
06/17/2019 20:00 0.00 67.3 78.0 474.87 136.3
06/17/2019 19:00 0.00 67.1 78.0 474.88 137.5
06/17/2019 18:00 0.00 67.1 79.0 474.88 136.8
06/17/2019 17:00 0.00 66.9 77.0 474.88 138.8
06/17/2019 16:00 0.00 66.7 76.0 474.88 139.0
06/17/2019 15:00 0.00 66.7 73.0 474.88 140.0
06/17/2019 14:00 0.00 66.7 72.0 474.89 142.5
06/17/2019 13:00 0.00 66.7 70.0 474.88 141.8
06/17/2019 12:00 0.00 66.7 68.0 474.88 141.0
06/17/2019 11:00 0.00 66.7 66.0 474.89 142.0
06/17/2019 10:00 0.00 66.9 64.0 474.89 142.0
06/17/2019 09:00 0.00 66.9 60.0 474.89 142.3
06/17/2019 08:00 0.00 67.1 57.0 474.89 142.0
06/17/2019 07:00 0.00 66.9 57.0 474.89 141.5
06/17/2019 06:00 0.00 66.7 59.0 474.88 140.0
06/17/2019 05:00 0.00 66.7 59.0 474.88 140.0
06/17/2019 04:00 0.00 66.6 61.0 474.88 138.0
06/17/2019 03:00 0.01 66.6 62.0 474.88 137.8
06/17/2019 02:00 0.00 66.4 63.0 474.88 137.0
06/17/2019 01:00 0.00 66.4 63.0 474.88 137.0
06/17/2019 00:00 0.01 66.4 64.0 474.88 136.0
06/16/2019 23:00 0.00 66.4 64.0 474.87 135.0
06/16/2019 22:00 0.00 66.4 65.0 474.87 135.0
06/16/2019 21:00 0.01 66.4 65.0 474.87 134.5
06/16/2019 20:00 0.00 66.2 65.0 474.87 134.5
06/16/2019 19:00 0.02 66.0 66.0 474.87 133.0
06/16/2019 18:00 0.06 65.8 66.0 474.87 133.0
06/16/2019 17:00 0.05 65.8 66.0 474.87 131.0
06/16/2019 16:00 0.04 65.8 67.0 474.86 130.0
06/16/2019 15:00 0.07 65.7 66.0 474.86 130.0
06/16/2019 14:00 0.03 65.7 66.0 474.86 129.0
06/16/2019 13:00 0.01 65.7 66.0 474.86 129.0
06/16/2019 12:00 0.00 65.3 68.0 474.86 129.8
06/16/2019 11:00 0.00 65.5 68.0 474.86 130.0
06/16/2019 10:00 0.00 65.5 68.0 474.86 131.8
06/16/2019 09:00 0.00 65.5 65.0 474.87 133.0
06/16/2019 08:00 0.00 65.5 64.0 474.87 133.5
06/16/2019 07:00 0.00 65.3 63.0 474.87 135.0
06/16/2019 06:00 0.00 64.9 65.0 474.88 136.0
06/16/2019 05:00 0.00 65.1 66.0 474.87 134.0
06/16/2019 04:00 0.00 65.1 68.0 474.87 135.5
06/16/2019 03:00 0.00 65.1 70.0 474.87 136.3
06/16/2019 02:00 0.00 65.1 70.0 474.88 138.0
06/16/2019 01:00 0.00 65.1 70.0 474.88 140.0
06/16/2019 00:00 0.00 64.8 70.0 474.88 139.5
06/15/2019 23:00 0.00 64.8 70.0 474.88 141.5
06/15/2019 22:00 0.00 64.6 72.0 474.89 142.5
06/15/2019 21:00 0.00 64.6 74.0 474.89 143.8
06/15/2019 20:00 0.00 64.2 76.0 474.89 144.0
06/15/2019 19:00 0.00 63.9 79.0 474.90 145.0
06/15/2019 18:00 0.00 63.7 80.0 474.89 145.5
06/15/2019 17:00 0.00 63.7 79.0 474.90 147.8
06/15/2019 16:00 0.00 63.7 78.0 474.89 149.0
06/15/2019 15:00 0.00 63.5 77.0 474.89 146.3
06/15/2019 14:00 0.00 63.5 75.0 474.91 150.8
06/15/2019 13:00 0.00 63.7 72.0 474.90 150.3
06/15/2019 12:00 0.00 63.7 69.0 474.91 152.5
06/15/2019 11:00 0.00 64.0 66.0 474.91 153.0
06/15/2019 10:00 0.00 64.4 59.0 474.91 155.0
06/15/2019 09:00 0.00 64.8 57.0 474.91 155.3
06/15/2019 08:00 0.00 64.9 49.0 474.91 156.0
06/15/2019 07:00 0.00 65.1 48.0 474.92 157.5
06/15/2019 06:00 0.00 65.3 47.0 474.92 158.5
06/15/2019 05:00 0.00 65.5 48.0 474.92 160.0
06/15/2019 04:00 0.00 65.7 49.0 474.92 160.3
06/15/2019 03:00 0.00 65.7 50.0 474.92 161.0
06/15/2019 02:00 0.00 65.8 51.0 474.92 162.0
06/15/2019 01:00 0.00 65.8 53.0 474.92 162.0
06/15/2019 00:00 0.00 65.8 55.0 474.93 162.5
06/14/2019 23:00 0.00 65.7 58.0 474.93 161.5
06/14/2019 22:00 0.00 65.5 58.0 474.92 163.0
06/14/2019 21:00 0.00 65.3 61.0 474.93 161.5
06/14/2019 20:00 0.00 64.9 63.0 474.92 163.0
06/14/2019 19:00 0.00 64.9 64.0 474.92 163.0
06/14/2019 18:00 0.01 64.9 64.0 474.93 166.8
06/14/2019 17:00 0.00 64.9 64.0 474.91 161.0
06/14/2019 16:00 0.00 64.9 69.0 474.92 163.0
06/14/2019 15:00 0.00 65.1 66.0 474.93 163.5
06/14/2019 14:00 0.00 65.1 69.0 474.93 165.5
06/14/2019 13:00 0.00 64.9 66.0 474.93 164.5
06/14/2019 12:00 0.00 65.1 62.0 474.93 164.5
06/14/2019 11:00 0.00 65.3 59.0 474.93 163.5
06/14/2019 10:00 0.00 65.5 56.0 474.93 163.5
06/14/2019 09:00 0.00 65.5 54.0 474.93 163.5
06/14/2019 08:00 0.00 65.7 52.0 474.93 162.5
06/14/2019 07:00 0.00 65.7 50.0 474.93 162.0
06/14/2019 06:00 0.00 65.8 50.0 474.92 161.0
06/14/2019 05:00 0.00 66.0 49.0 474.92 160.8
06/14/2019 04:00 0.00 66.0 49.0 474.92 160.0
06/14/2019 03:00 0.00 66.2 49.0 474.92 160.0
06/14/2019 02:00 0.00 66.4 50.0 474.92 158.0
06/14/2019 01:00 0.00 66.4 50.0 474.92 157.5
06/14/2019 00:00 0.00 66.6 51.0 474.91 156.0
06/13/2019 23:00 0.00 66.6 51.0 474.91 155.5
06/13/2019 22:00 0.00 66.7 51.0 474.91 155.5
06/13/2019 21:00 0.00 66.7 51.0 474.91 154.5
06/13/2019 20:00 0.01 66.9 52.0 474.91 153.3
06/13/2019 19:00 0.01 67.1 51.0 474.90 152.0
06/13/2019 18:00 0.01 67.1 51.0 474.91 153.0
06/13/2019 17:00 0.02 67.1 50.0 474.92 156.3
06/13/2019 16:00 0.03 67.3 51.0 474.91 154.5
06/13/2019 15:00 0.04 67.3 51.0 474.91 153.5
06/13/2019 14:00 0.02 67.5 53.0 474.91 152.5
06/13/2019 13:00 0.00 67.6 57.0 474.91 153.0
06/13/2019 12:00 0.01 67.6 56.0 474.91 154.0
06/13/2019 11:00 0.02 67.8 54.0 474.91 155.0
06/13/2019 10:00 0.00 68.0 56.0 474.91 155.0
06/13/2019 09:00 0.00 68.2 56.0 474.91 155.3
06/13/2019 08:00 0.00 68.5 54.0 474.91 156.5
06/13/2019 07:00 0.00 69.3 52.0 474.92 158.5
06/13/2019 06:00 0.00 69.3 53.0 474.92 160.3
06/13/2019 05:00 0.00 69.4 53.0 474.92 161.0
06/13/2019 04:00 0.00 69.1 55.0 474.92 162.5
06/13/2019 03:00 0.00 69.3 57.0 474.93 164.5
06/13/2019 02:00 0.00 68.7 60.0 474.93 166.0
06/13/2019 01:00 0.00 68.9 62.0 474.93 167.8
06/13/2019 00:00 0.00 68.9 63.0 474.94 170.0
06/12/2019 23:00 0.00 68.7 62.0 474.94 172.0
06/12/2019 22:00 0.00 68.7 67.0 474.95 173.0
06/12/2019 21:00 0.00 68.2 72.0 474.95 175.5
06/12/2019 20:00 0.00 68.0 76.0 474.96 178.3
06/12/2019 19:00 0.00 67.8 77.0 474.96 179.5
06/12/2019 18:00 0.00 67.6 77.0 474.96 181.5
06/12/2019 17:00 0.00 67.6 77.0 474.97 184.0
06/12/2019 16:00 0.00 67.6 73.0 474.97 187.0
06/12/2019 15:00 0.00 67.5 73.0 474.97 187.0
06/12/2019 14:00 0.00 67.6 70.0 474.97 188.3
06/12/2019 13:00 0.00 67.5 68.0 474.97 189.3
06/12/2019 12:00 0.00 67.6 68.0 474.98 190.0
06/12/2019 11:00 0.00 67.8 64.0 474.98 192.0
06/12/2019 10:00 0.00 67.8 62.0 474.98 193.0
06/12/2019 09:00 0.00 68.7 55.0 474.99 195.0
06/12/2019 08:00 0.00 68.7 51.0 474.99 195.0
06/12/2019 07:00 0.00 69.3 45.0 474.99 197.0
06/12/2019 06:00 0.00 69.4 46.0 474.99 197.3
06/12/2019 05:00 0.00 69.6 47.0 474.99 198.0
06/12/2019 04:00 0.00 70.0 48.0 475.00 200.0
06/12/2019 03:00 0.00 70.2 51.0 475.00 201.0
06/12/2019 02:00 0.00 70.3 54.0 475.00 202.0
06/12/2019 01:00 0.00 70.5 56.0 475.00 200.5
06/12/2019 00:00 0.00 70.7 59.0 475.00 199.0
06/11/2019 23:00 0.00 70.5 61.0 474.99 195.5
06/11/2019 22:00 0.00 70.5 63.0 474.97 188.8
06/11/2019 21:00 0.00 70.2 65.0 474.96 184.0
06/11/2019 20:00 0.00 69.8 67.0 474.97 181.0
06/11/2019 19:00 0.00 69.6 68.0 474.97 176.3
06/11/2019 18:00 0.00 69.6 70.0 474.95 169.8
06/11/2019 17:00 0.00 69.6 71.0 474.91 163.0
06/11/2019 16:00 0.00 69.6 70.0 474.93 162.0
06/11/2019 15:00 0.00 69.3 69.0 474.93 157.3
06/11/2019 14:00 0.00 69.1 67.0 474.90 148.5
06/11/2019 13:00 0.01 69.1 67.0 474.90 144.0
06/11/2019 12:00 0.00 68.7 67.0 474.88 137.5
06/11/2019 11:00 0.01 68.7 66.0 474.87 132.0
06/11/2019 10:00 0.02 68.5 65.0 474.86 128.0
06/11/2019 09:00 0.29 68.7 64.0 474.86 122.8
06/11/2019 08:00 0.14 68.7 63.0 474.83 112.3
06/11/2019 07:00 0.04 68.9 63.0 474.82 109.0
06/11/2019 06:00 0.01 69.1 63.0 474.82 108.5
06/11/2019 05:00 0.05 69.1 62.0 474.82 108.0
06/11/2019 04:00 0.08 68.9 61.0 474.81 106.3
06/11/2019 03:00 0.04 68.9 62.0 474.81 105.0
06/11/2019 02:00 0.00 68.9 63.0 474.81 106.0
06/11/2019 01:00 0.00 69.1 64.0 474.81 106.3
06/11/2019 00:00 0.00 68.9 65.0 474.81 107.5
06/10/2019 23:00 0.00 68.7 66.0 474.81 108.3
06/10/2019 22:00 0.00 68.9 67.0 474.82 108.8
06/10/2019 21:00 0.00 68.7 70.0 474.82 110.5
06/10/2019 20:00 0.00 68.9 73.0 474.83 112.0
06/10/2019 19:00 0.00 68.7 79.0 474.83 114.0
06/10/2019 18:00 0.00 68.7 80.0 474.83 115.8
06/10/2019 17:00 0.00 68.4 81.0 474.83 115.3
06/10/2019 16:00 0.00 68.2 80.0 474.83 116.5
06/10/2019 15:00 0.00 68.4 79.0 474.84 117.5
06/10/2019 14:00 0.00 68.2 76.0 474.84 118.3
06/10/2019 13:00 0.00 68.2 75.0 474.84 119.0
06/10/2019 12:00 0.00 68.4 74.0 474.84 120.5
06/10/2019 11:00 0.00 68.2 72.0 474.85 122.0
06/10/2019 10:00 0.00 68.0 67.0 474.85 122.0
06/10/2019 09:00 0.00 68.2 62.0 474.85 122.0
06/10/2019 08:00 0.00 68.2 56.0 474.85 123.5
06/10/2019 07:00 0.00 68.2 52.0 474.85 124.0
06/10/2019 06:00 0.00 68.0 53.0 474.85 124.5
06/10/2019 05:00 0.00 68.0 54.0 474.85 126.0
06/10/2019 04:00 0.00 67.8 56.0 474.85 126.3
06/10/2019 03:00 0.00 68.0 57.0 474.86 126.8
06/10/2019 02:00 0.00 68.4 59.0 474.86 127.5
06/10/2019 01:00 0.00 67.8 60.0 474.86 129.0
06/10/2019 00:00 0.00 68.2 62.0 474.86 129.3
06/09/2019 23:00 0.00 67.6 63.0 474.86 130.0
06/09/2019 22:00 0.00 68.0 67.0 474.86 131.5
06/09/2019 21:00 0.00 67.8 76.0 474.87 132.8
06/09/2019 20:00 0.00 67.6 81.0 474.87 135.0
06/09/2019 19:00 0.00 67.5 80.0 474.87 136.0
06/09/2019 18:00 0.00 67.5 81.0 474.88 137.3
06/09/2019 17:00 0.00 67.5 82.0 474.88 139.5
06/09/2019 16:00 0.00 67.3 80.0 474.88 141.0
06/09/2019 15:00 0.00 67.5 79.0 474.89 142.3
06/09/2019 14:00 0.00 67.5 77.0 474.89 143.3
06/09/2019 13:00 0.00 67.5 74.0 474.89 145.5
06/09/2019 12:00 0.00 67.6 72.0 474.90 146.0
06/09/2019 11:00 0.00 67.8 68.0 474.90 147.5
06/09/2019 10:00 0.00 68.4 64.0 474.90 149.5
06/09/2019 09:00 0.00 68.5 57.0 474.90 150.8
06/09/2019 08:00 0.00 68.7 50.0 474.91 152.5
06/09/2019 07:00 0.00 68.7 48.0 474.91 154.0
06/09/2019 06:00 0.00 68.4 49.0 474.91 155.5
06/09/2019 05:00 0.00 68.2 49.0 474.91 156.0
06/09/2019 04:00 0.00 68.0 51.0 474.92 158.0
06/09/2019 03:00 0.00 68.0 51.0 474.92 160.0
06/09/2019 02:00 0.00 68.0 51.0 474.92 161.0
06/09/2019 01:00 0.00 68.0 53.0 474.93 163.5
06/09/2019 00:00 0.00 68.0 55.0 474.93 165.0
06/08/2019 23:00 0.00 67.8 58.0 474.93 167.3
06/08/2019 22:00 0.00 67.6 63.0 474.94 168.0
06/08/2019 21:00 0.00 67.3 72.0 474.94 169.5
06/08/2019 20:00 0.00 67.1 78.0 474.94 170.5
06/08/2019 19:00 0.00 67.3 78.0 474.94 172.3
06/08/2019 18:00 0.00 66.9 78.0 474.95 174.5
06/08/2019 17:00 0.00 66.7 77.0 474.95 176.5
06/08/2019 16:00 0.00 66.7 75.0 474.95 178.3
06/08/2019 15:00 0.00 66.7 74.0 474.95 179.5
06/08/2019 14:00 0.00 66.7 73.0 474.97 183.5
06/08/2019 13:00 0.00 66.6 71.0 474.96 183.0
06/08/2019 12:00 0.00 66.6 70.0 474.97 184.5
06/08/2019 11:00 0.00 66.6 68.0 474.97 187.5
06/08/2019 10:00 0.00 66.6 67.0 474.97 188.5
06/08/2019 09:00 0.00 67.1 58.0 474.98 190.0
06/08/2019 08:00 0.00 67.3 51.0 474.98 191.5
06/08/2019 07:00 0.00 67.6 49.0 474.98 194.0
06/08/2019 06:00 0.00 67.6 50.0 474.99 195.5
06/08/2019 05:00 0.00 67.8 51.0 474.99 197.5
06/08/2019 04:00 0.00 67.8 53.0 474.99 199.0
06/08/2019 03:00 0.00 67.6 55.0 475.00 200.5
06/08/2019 02:00 0.00 67.5 57.0 475.00 203.0
06/08/2019 01:00 0.00 67.3 60.0 475.00 205.0
06/08/2019 00:00 0.00 67.6 61.0 475.01 207.5
06/07/2019 23:00 0.00 67.1 64.0 475.01 209.0
06/07/2019 22:00 0.00 66.6 67.0 475.01 210.5
06/07/2019 21:00 0.00 66.4 76.0 475.02 213.0
06/07/2019 20:00 0.00 66.0 80.0 475.02 215.5
06/07/2019 19:00 0.00 65.8 80.0 475.02 215.5
06/07/2019 18:00 0.00 65.5 80.0 475.02 216.0
06/07/2019 17:00 0.00 65.5 79.0 475.03 218.5
06/07/2019 16:00 0.00 65.1 78.0 475.04 222.5
06/07/2019 15:00 0.00 65.1 76.0 475.04 223.0
06/07/2019 14:00 0.00 65.1 74.0 475.04 227.0
06/07/2019 13:00 0.00 65.3 71.0 475.05 230.0
06/07/2019 12:00 0.00 65.1 71.0 475.05 232.0
06/07/2019 11:00 0.00 65.1 70.0 475.05 234.0
06/07/2019 10:00 0.00 65.3 64.0 475.06 236.0
06/07/2019 09:00 0.00 65.7 54.0 475.06 238.5
06/07/2019 08:00 0.00 65.8 48.0 475.07 240.5
06/07/2019 07:00 0.00 66.0 46.0 475.07 243.5
06/07/2019 06:00 0.00 66.2 47.0 475.07 245.0
06/07/2019 05:00 0.00 66.4 48.0 475.08 246.8
06/07/2019 04:00 0.00 66.6 49.0 475.08 249.5
06/07/2019 03:00 0.00 66.7 51.0 475.09 252.5
06/07/2019 02:00 0.00 66.6 53.0 475.09 254.5
06/07/2019 01:00 0.00 66.6 55.0 475.10 257.0
06/07/2019 00:00 0.00 66.4 57.0 475.10 258.5
06/06/2019 23:00 0.00 66.0 59.0 475.10 259.0
06/06/2019 22:00 0.00 65.5 64.0 475.10 259.0
06/06/2019 21:00 0.00 65.3 73.0 475.10 257.5
06/06/2019 20:00 0.00 64.6 76.0 475.10 256.5
06/06/2019 19:00 0.00 64.2 76.0 475.10 255.0
06/06/2019 18:00 0.00 64.0 77.0 475.09 249.8
06/06/2019 17:00 0.00 63.9 76.0 475.08 245.3
06/06/2019 16:00 0.00 63.5 75.0 475.06 237.0
06/06/2019 15:00 0.00 63.5 74.0 475.05 227.8
06/06/2019 14:00 0.00 63.3 73.0 475.04 224.3
06/06/2019 13:00 0.00 63.3 71.0 475.04 218.3
06/06/2019 12:00 0.00 63.3 68.0 475.02 210.5
06/06/2019 11:00 0.00 63.5 65.0 475.01 203.5
06/06/2019 10:00 0.00 63.5 63.0 474.99 194.8
06/06/2019 09:00 0.00 63.7 59.0 474.98 186.3
06/06/2019 08:00 0.02 63.7 59.0 474.96 177.8
06/06/2019 07:00 0.05 63.3 58.0 474.95 169.0
06/06/2019 06:00 0.04 63.3 58.0 474.93 161.0
06/06/2019 05:00 0.19 62.8 58.0 474.92 155.0
06/06/2019 04:00 0.12 62.8 58.0 474.90 144.3
06/06/2019 03:00 0.03 62.6 58.0 474.89 142.0
06/06/2019 02:00 0.17 63.0 57.0 474.89 140.5
06/06/2019 01:00 0.09 62.8 57.0 474.88 136.0
06/06/2019 00:00 0.03 62.8 58.0 474.87 135.0
06/05/2019 23:00 0.00 62.6 61.0 474.87 135.0
06/05/2019 22:00 0.00 62.6 62.0 474.87 135.0
06/05/2019 21:00 0.00 62.6 64.0 474.88 137.0
06/05/2019 20:00 0.00 62.4 67.0 474.88 137.3
06/05/2019 19:00 0.00 62.2 71.0 474.88 137.3
06/05/2019 18:00 0.00 62.2 72.0 474.88 138.5
06/05/2019 17:00 0.00 62.2 74.0 474.88 138.0
06/05/2019 16:00 0.00 62.2 74.0 474.88 140.0
06/05/2019 15:00 0.00 62.4 74.0 474.89 145.0
06/05/2019 14:00 0.00 62.2 70.0 474.90 146.0
06/05/2019 13:00 0.00 62.2 67.0 474.90 146.0
06/05/2019 12:00 0.00 62.4 62.0 474.90 146.0
06/05/2019 11:00 0.00 62.6 58.0 474.90 147.0
06/05/2019 10:00 0.00 63.0 54.0 474.90 147.5
06/05/2019 09:00 0.00 63.1 52.0 474.90 148.0
06/05/2019 08:00 0.00 63.3 51.0 474.90 148.5
06/05/2019 07:00 0.00 63.5 50.0 474.90 149.0
06/05/2019 06:00 0.00 63.5 50.0 474.90 150.0
06/05/2019 05:00 0.05 63.5 50.0 474.90 150.5
06/05/2019 04:00 0.01 63.5 50.0 474.91 151.0
06/05/2019 03:00 0.01 63.7 50.0 474.91 151.0
06/05/2019 02:00 0.00 63.3 52.0 474.91 152.5
06/05/2019 01:00 0.00 63.7 53.0 474.91 153.0
06/05/2019 00:00 0.00 63.7 55.0 474.91 155.0
06/04/2019 23:00 0.00 62.8 57.0 474.91 155.8
06/04/2019 22:00 0.00 62.8 59.0 474.91 156.0
06/04/2019 21:00 0.00 62.8 61.0 474.92 159.0
06/04/2019 20:00 0.00 62.4 62.0 474.92 160.0
06/04/2019 19:00 0.00 62.4 63.0 474.92 160.3
06/04/2019 18:00 0.00 62.2 64.0 474.92 162.0
06/04/2019 17:00 0.00 62.2 65.0 474.92 161.8
06/04/2019 16:00 0.00 62.1 63.0 474.93 161.8
06/04/2019 15:00 0.00 62.1 62.0 474.93 162.0
06/04/2019 14:00 0.00 62.2 61.0 474.93 163.3
06/04/2019 13:00 0.00 62.2 60.0 474.94 166.5
06/04/2019 12:00 -- -- -- -- --
06/04/2019 11:00 -- -- -- -- --
06/04/2019 10:00 -- -- -- -- --
06/04/2019 09:00 -- -- -- -- --
06/04/2019 08:00 -- -- -- -- --
06/04/2019 07:00 -- -- -- -- --
06/04/2019 06:00 -- -- -- -- --
06/04/2019 05:00 -- -- -- -- --
06/04/2019 04:00 -- -- -- -- --
06/04/2019 03:00 -- -- -- -- --
06/04/2019 02:00 -- -- -- -- --